Weather observations for the past three days for
Chariton
Metric (Imperial)
Date Time (cdt) Wind (kph) Vis. (km) Weather Sky Cond. Temperature (ºC) Relative Humidity Wind Chill (°C) Heat Index (°C) Pressure Precipitation (cm)
Air Dwpt 6 hour altimeter (cm) sea level (mb) 1 hr 3 hr 6 hr
Max. Min.
10 06:55 W 9 16.09 Fair CLR 5 -2 61% 3 76.5 0.0
10 06:35 W 9 16.09 Fair CLR 5 -3 57% 3 76.5 0.0
10 06:15 W 7 16.09 Fair CLR 5 -4 53% 4 76.48 0.0
10 05:55 NW 9 16.09 Fair CLR 5 -4 53% 3 76.43 0.0
10 05:35 NW 7 16.09 Fair CLR 5 -3 57% 4 76.43 0.0
10 05:15 NW 7 16.09 Fair CLR 5 -4 53% 4 76.4 0.0
10 04:55 NW 7 16.09 Fair CLR 6 -4 49% 5 76.38 0.0
10 04:35 N 9 16.09 Fair CLR 6 -4 49% 4 76.38 0.0
10 04:15 N 11 16.09 Fair CLR 6 -4 49% 4 76.35 0.0
10 03:55 N 13 16.09 Fair CLR 6 -4 49% 4 76.35 0.0
10 03:35 N 13 16.09 Fair CLR 7 -5 43% 5 76.33 0.0
10 03:15 NW 11 16.09 Fair CLR 7 -4 46% 5 76.33 0.0
10 02:55 N 11 16.09 Fair CLR 7 -4 46% 5 76.33 0.0
10 02:35 N 11 16.09 Fair CLR 8 -4 43% 6 76.28 0.0
10 02:15 N 9 16.09 Fair CLR 8 -4 43% 7 76.28 0.0
10 01:55 N 7 16.09 Fair CLR 9 -4 40% 8 76.28 0.0
10 01:35 N 7 16.09 Fair CLR 9 -4 40% 8 76.25 0.0
10 01:15 N 9 16.09 Fair CLR 9 -3 43% 8 76.23 0.0
10 00:55 N 11 16.09 Fair CLR 10 -3 40% 9 76.17 0.0
10 00:35 N 13 16.09 Fair CLR 11 -4 35% 76.17 0.0
10 00:15 N 15 16.09 Fair CLR 11 -4 35% 76.15 0.0
09 23:55 N 17 16.09 Fair CLR 12 -3 35% 76.12 0.0
09 23:35 N 15 16.09 Fair CLR 12 -3 35% 76.1 0.0
09 23:15 N 17 16.09 Fair CLR 13 -3 33% 76.07 0.0
09 22:55 N 17 16.09 Fair CLR 13 -2 36% 76.07 0.0
09 22:35 N 19 16.09 Fair CLR 14 -2 33% 76.05 0.0
09 22:15 N 19 16.09 Fair CLR 14 -1 36% 76.02 0.0
09 21:55 N 13 16.09 A Few Clouds FEW044 FEW120 14 0 39% 76 0.0
09 21:35 N 11 16.09 Fair CLR 15 0 36% 75.97 0.0
09 21:15 N 9 16.09 Fair CLR 15 0 36% 75.92 0.0
09 20:55 N 15 16.09 Fair CLR 16 1 36% 75.9 0.0
09 20:35 N 13 16.09 Fair CLR 17 1 34% 75.84 0.0
09 20:15 N 13 16.09 Fair CLR 18 3 37% 75.84 0.0
09 19:55 N 13 G 24 16.09 Fair CLR 19 4 37% 75.79 0.0
09 19:35 N 15 G 28 16.09 Fair CLR 20 5 38% 75.77 0.0
09 19:15 N 17 16.09 Fair CLR 20 5 38% 75.74 0.0
09 18:55 N 24 16.09 Fair CLR 20 5 38% 75.74 0.0
09 18:35 N 24 G 37 16.09 Fair CLR 20 6 40% 75.74 0.0
09 18:15 N 22 G 33 16.09 Fair CLR 20 6 40% 75.72 0.0
09 17:55 N 26 16.09 A Few Clouds FEW120 20 6 40% 75.69 0.0
09 17:35 N 24 G 33 16.09 Fair CLR 20 6 40% 75.69 0.0
09 17:15 N 19 16.09 Fair CLR 21 5 35% 75.67 0.0
09 16:55 N 20 16.09 Fair CLR 21 3 31% 75.64 0.0
09 16:35 N 17 16.09 Fair CLR 21 1 27% 75.64 0.0
09 16:15 N 20 G 31 16.09 A Few Clouds FEW110 22 1 25% 75.64 0.0
09 15:55 N 20 16.09 Fair CLR 22 1 25% 75.62 0.0
09 15:35 NW 22 14.48 Fair CLR 23 0 22% 75.62 0.0
09 15:15 NW 24 G 33 16.09 Fair CLR 23 0 22% 75.62 0.0
09 14:55 N 22 14.48 Fair CLR 24 1 22% 25 75.62 0.0
09 14:35 NW 17 G 33 16.09 Fair CLR 25 0 19% 25 75.62 0.0
09 14:15 NW 15 G 41 16.09 Fair CLR 25 1 21% 25 75.62 0.0
09 13:55 NW 17 G 31 16.09 Fair CLR 25 1 21% 25 75.62 0.0
09 13:35 NW 20 G 35 16.09 Fair CLR 24 1 22% 25 75.59 0.0
09 13:15 NW 13 G 35 16.09 Fair CLR 24 0 21% 25 75.59 0.0
09 12:55 NW 17 16.09 Fair CLR 24 1 22% 25 75.59 0.0
09 12:35 NW 20 G 30 16.09 Fair CLR 24 1 22% 25 75.59 0.0
09 12:15 NW 24 14.48 Fair CLR 23 2 25% 75.62 0.0
09 11:55 N 22 G 35 14.48 Fair CLR 24 3 25% 25 75.62 0.0
09 11:35 N 22 G 39 14.48 Fair CLR 23 2 25% 75.59 0.0
09 11:15 NW 31 16.09 Fair CLR 24 0 21% 25 75.59 0.0
09 10:55 W 26 16.09 Fair CLR 23 1 23% 75.54 0.0
09 10:35 W 22 14.48 Fair CLR 22 1 25% 75.54 0.0
09 10:15 W 24 14.48 Fair CLR 21 2 29% 75.54 0.0
09 09:55 W 19 16.09 Fair CLR 21 2 29% 75.51 0.0
09 09:35 W 13 14.48 Fair CLR 20 4 35% 75.54 0.0
09 09:15 SW 9 14.48 Fair CLR 18 6 46% 75.54 0.0
09 08:55 W 7 16.09 Fair CLR 16 6 52% 75.54 0.0
09 08:35 W 13 16.09 Fair CLR 15 7 59% 75.54 0.0
09 08:15 W 13 0.00 Fair CLR 13 8 72% 75.54 0.0
09 07:55 W 15 14.48 Fair CLR 12 12 100% 75.51 0.0
09 07:35 W 13 16.09 Fair CLR 11 11 100% 75.51 0.0
09 07:15 W 9 16.09 Fair CLR 10 10 100% 9 75.51 0.0
09 06:55 W 9 16.09 Fair CLR 9 9 100% 8 75.49 0.0
09 06:35 SW 13 16.09 Fair CLR 8 8 100% 6 75.46 0.0
09 06:15 W 13 16.09 Fair CLR 8 8 100% 6 75.44 0.0
09 05:55 SW 11 16.09 Fair CLR 8 8 100% 6 75.44 0.0
09 05:35 SW 11 16.09 Fair CLR 8 8 100% 6 75.41 0.0
09 05:15 W 13 16.09 A Few Clouds FEW032 FEW039 9 9 100% 7 75.41 0.0
09 04:55 W 9 16.09 Fair CLR 9 9 100% 8 75.44 0.0
09 04:35 W 13 16.09 A Few Clouds FEW032 FEW041 9 9 100% 7 75.41 0.0
09 04:15 W 13 16.09 A Few Clouds FEW024 FEW031 FEW040 10 10 100% 8 75.44 0.0
09 03:55 SW 13 16.09 Fair CLR 10 10 100% 8 75.41 0.0
09 03:35 W 13 16.09 Fair CLR 11 11 100% 75.41 0.0
09 03:15 SW 13 16.09 Fair CLR 11 11 100% 75.41 0.0
09 02:55 W 15 16.09 Fair CLR 11 11 100% 75.41 0.0
09 02:35 SW 13 16.09 Fair CLR 11 11 100% 75.41 0.0
09 02:15 SW 11 16.09 Fair CLR 12 12 100% 75.44 0.0
09 01:55 SW 13 16.09 A Few Clouds FEW110 12 12 100% 75.44 0.0
09 01:35 SW 13 16.09 Fair CLR 12 12 100% 75.44 0.0
09 01:15 SW 11 16.09 Fair CLR 12 12 100% 75.44 0.0
09 00:55 SW 15 G 33 16.09 Fair CLR 12 12 100% 75.44 0.0
09 00:35 SW 13 16.09 Fair CLR 13 13 100% 75.44 0.0
09 00:15 SW 13 16.09 Fair CLR 13 13 100% 75.46 0.0
08 23:55 SW 13 16.09 Fair CLR 13 13 100% 75.46 0.0
08 23:35 SW 13 16.09 Fair CLR 12 12 100% 75.46 0.0
08 23:15 S 13 16.09 Fair CLR 12 12 100% 75.49 0.0
08 22:55 S 13 16.09 A Few Clouds FEW110 13 13 100% 75.49 0.0
08 22:35 S 15 0.00 NULL NULL 13 13 100% 75.49 0.0
08 22:15 S 15 16.09 A Few Clouds FEW110 13 13 100% 75.49 0.0
08 21:55 S 17 16.09 Partly Cloudy FEW075 FEW100 SCT120 14 12 88% 75.46 0.0
08 21:35 SW 19 16.09 Overcast FEW070 BKN095 OVC110 15 11 77% 75.46 0.0
08 21:15 SW 11 16.09 Partly Cloudy SCT110 15 11 77% 75.49 0.0
08 20:55 S 19 16.09 Fair CLR 15 10 72% 75.44 0.0
08 20:35 S 17 16.09 Fair CLR 16 10 68% 75.44 0.0
08 20:15 S 19 14.48 Fair CLR 17 10 64% 75.41 0.0
08 19:55 S 20 G 30 16.09 Fair CLR 18 9 56% 75.41 0.0
08 19:35 S 22 16.09 Fair CLR 19 9 52% 75.39 0.0
08 19:15 S 22 G 33 16.09 Fair CLR 20 7 43% 75.39 0.0
08 18:55 SW 26 16.09 Fair CLR 20 6 40% 75.41 0.0
08 18:35 SW 17 16.09 Fair CLR 21 6 38% 75.41 0.0
08 18:15 SW 22 16.09 Fair CLR 21 6 38% 75.44 0.0
08 17:55 SW 19 14.48 Fair CLR 22 5 33% 75.44 0.0
08 17:35 SW 17 G 28 16.09 Fair CLR 22 4 31% 75.44 0.0
08 17:15 W 19 14.48 Fair CLR 22 3 29% 75.46 0.0
08 16:55 SW 17 14.48 Fair CLR 22 4 31% 75.46 0.0
08 16:35 Vrbl 7 14.48 Fair CLR 21 3 31% 75.49 0.0
08 16:15 W 19 16.09 Fair CLR 22 3 29% 75.49 0.0
08 15:55 W 17 16.09 Fair CLR 22 4 31% 75.51 0.0
08 15:35 SW 15 G 24 16.09 A Few Clouds FEW070 FEW085 22 4 31% 75.51 0.0
08 15:15 Vrbl 9 G 22 16.09 A Few Clouds FEW075 22 3 29% 75.54 0.0
08 14:55 W 15 G 28 16.09 Fair CLR 21 3 31% 75.57 0.0
08 14:35 SW 13 G 26 16.09 Fair CLR 21 4 33% 75.57 0.0
08 14:15 SW 15 G 24 16.09 Fair CLR 20 3 33% 75.59 0.0
08 13:55 SW 15 G 28 14.48 Fair CLR 20 3 33% 75.62 0.0
08 13:35 Vrbl 9 G 26 16.09 Fair CLR 20 3 33% 75.62 0.0
08 13:15 S 15 G 24 16.09 Fair CLR 20 7 43% 75.64 0.0
08 12:55 S 13 G 24 16.09 Fair CLR 19 6 43% 75.64 0.0
08 12:35 SW 15 14.48 Fair CLR 19 7 46% 75.64 0.0
08 12:15 S 11 16.09 Fair CLR 19 8 49% 75.67 0.0
08 11:55 S 9 14.48 Fair CLR 17 8 56% 75.67 0.0
08 11:35 S 13 16.09 Fair CLR 16 9 63% 75.69 0.0
08 11:15 S 7 16.09 Fair CLR 15 9 68% 75.69 0.0
08 10:55 Vrbl 7 16.09 Fair CLR 15 15 100% 75.72 0.0
08 10:35 Calm 16.09 Fair CLR 13 13 100% 75.69 0.0
08 10:15 S 7 14.48 Fair CLR 12 12 100% 75.72 0.0
08 09:55 S 11 14.48 Fair CLR 11 11 100% 75.69 0.0
08 09:35 Vrbl 11 14.48 Light Rain CLR 11 11 100% 75.72 0.0
08 09:15 Calm 14.48 Fair CLR 11 11 100% 75.77 0.0
08 08:55 Calm 16.09 A Few Clouds FEW095 11 11 100% 75.74 0.0
08 08:35 SE 7 16.09 Mostly Cloudy BKN095 10 10 100% 9 75.74 0.0
08 08:15 S 7 16.09 Fair CLR 9 9 100% 8 75.72 0.0
08 07:55 Calm 16.09 Fair CLR 9 9 100% 75.69 0.0
08 07:35 Calm 16.09 Fair CLR 8 8 100% 75.67 0.0
08 07:15 Calm 16.09 A Few Clouds FEW075 FEW085 8 8 100% 75.69 0.0
08 06:55 Calm 16.09 A Few Clouds FEW085 FEW110 7 7 100% 75.69 0.0
08 06:35 Calm 16.09 A Few Clouds FEW110 7 7 100% 75.72 0.0
08 06:15 S 6 12.87 Partly Cloudy FEW085 SCT120 7 7 100% 75.69 0.0
08 05:55 Calm 16.09 Overcast BKN085 OVC110 6 6 100% 75.69 0.0
08 05:35 N 7 16.09 Mostly Cloudy BKN090 BKN120 5 5 100% 4 75.69 0.0
08 05:15 Calm 16.09 Mostly Cloudy BKN100 BKN120 6 6 100% 75.72 0.0
08 04:55 Calm 16.09 Partly Cloudy SCT110 6 6 100% 75.72 0.0
08 04:35 NW 7 16.09 Partly Cloudy SCT110 6 6 100% 5 75.69 0.0
08 04:15 NW 9 16.09 Partly Cloudy SCT110 5 5 100% 3 75.69 0.0
08 03:55 NW 11 16.09 Fair CLR 5 5 100% 3 75.69 0.0
08 03:35 NW 9 16.09 Fair CLR 6 6 100% 4 75.69 0.0
08 03:15 NW 9 16.09 Fair CLR 7 7 100% 5 75.69 0.0
08 02:55 W 7 16.09 Fair CLR 7 7 100% 6 75.69 0.0
08 02:35 SW 6 16.09 A Few Clouds FEW037 8 8 100% 75.69 0.0
08 02:15 W 9 16.09 Fair CLR 8 8 100% 7 75.69 0.0
08 01:55 SW 9 16.09 Fair CLR 10 6 76% 9 75.69 0.0
08 01:35 SW 9 16.09 Fair CLR 10 6 76% 9 75.72 0.0
08 01:15 SW 7 16.09 A Few Clouds FEW040 10 6 76% 9 75.72 0.0
08 00:55 SW 6 16.09 Fair CLR 11 6 72% 75.72 0.0
08 00:35 S 13 16.09 Fair CLR 10 6 76% 8 75.69 0.0
08 00:15 S 7 16.09 Fair CLR 11 6 72% 75.69 0.0
07 23:55 S 7 16.09 Fair CLR 11 6 72% 75.72 0.0
07 23:35 S 7 0.00 Fair CLR 12 5 63% 75.72 0.0
07 23:15 S 7 16.09 Fair CLR 14 5 55% 75.72 0.0
07 22:55 Calm 16.09 Fair CLR 12 5 63% 75.72 0.0
07 22:35 NE 7 16.09 Fair CLR 13 5 59% 75.72 0.0
07 22:15 N 9 16.09 Fair CLR 12 4 58% 75.69 0.0
07 21:55 SE 7 16.09 Fair CLR 14 5 55% 75.69 0.0
07 21:35 S 13 16.09 A Few Clouds FEW085 15 5 51% 75.69 0.0
07 21:15 S 15 16.09 Overcast OVC090 15 4 48% 75.67 0.0
07 20:55 S 15 16.09 Overcast OVC090 15 4 48% 75.64 0.0
07 20:35 S 13 12.87 Overcast BKN090 OVC110 16 4 45% 75.64 0.0
07 20:15 S 11 16.09 Mostly Cloudy BKN090 BKN110 17 4 42% 75.62 0.0
07 19:55 S 13 16.09 Mostly Cloudy BKN090 BKN110 18 3 37% 75.62 0.0
07 19:35 S 11 14.48 Partly Cloudy SCT090 SCT110 18 3 37% 75.62 0.0
07 19:15 SW 13 16.09 Fair CLR 19 2 32% 75.62 0.0
07 18:55 SW 19 14.48 Fair CLR 19 2 32% 75.62 0.0
07 18:35 SW 19 11.27 A Few Clouds FEW090 19 2 32% 75.62 0.0
07 18:15 SW 20 16.09 A Few Clouds FEW090 19 2 32% 75.64 0.0
07 17:55 SW 17 G 28 16.09 Partly Cloudy SCT090 19 3 35% 75.64 0.0
07 17:35 SW 19 G 33 16.09 Partly Cloudy SCT095 SCT120 19 2 32% 75.67 0.0
07 17:15 SW 19 14.48 Partly Cloudy FEW085 SCT110 20 2 30% 75.67 0.0
07 16:55 SW 17 G 31 14.48 A Few Clouds FEW080 FEW110 19 1 30% 75.69 0.0
07 16:35 W 19 G 33 16.09 A Few Clouds FEW080 FEW110 20 1 28% 75.69 0.0
07 16:15 SW 17 G 35 16.09 Partly Cloudy SCT075 SCT100 19 2 32% 75.72 0.0
07 15:55 SW 22 G 35 16.09 Partly Cloudy SCT095 19 1 30% 75.72 0.0
07 15:35 SW 22 G 39 16.09 Partly Cloudy FEW075 FEW090 SCT110 20 1 28% 75.74 0.0
07 15:15 W 19 G 35 16.09 Mostly Cloudy SCT080 BKN085 BKN110 19 1 30% 75.77 0.0
07 14:55 SW 24 G 41 16.09 Mostly Cloudy SCT070 BKN085 19 1 30% 75.77 0.0
07 14:35 SW 22 G 39 16.09 Partly Cloudy SCT070 SCT085 19 1 30% 75.79 0.0
07 14:15 SW 17 G 33 16.09 Partly Cloudy SCT075 SCT085 18 2 34% 75.79 0.0
07 13:55 SW 24 G 35 16.09 Mostly Cloudy SCT075 BKN090 19 1 30% 75.79 0.0
07 13:35 W 19 G 39 14.48 Partly Cloudy SCT070 SCT080 19 1 30% 75.82 0.0
07 13:15 W 24 G 33 16.09 Partly Cloudy SCT070 18 -1 28% 75.84 0.0
07 12:55 W 19 G 30 16.09 Partly Cloudy SCT070 18 1 32% 75.84 0.0
07 12:35 SW 22 G 39 16.09 Partly Cloudy SCT060 SCT075 18 2 34% 75.87 0.0
07 12:15 W 22 G 31 16.09 Partly Cloudy FEW060 SCT070 17 3 39% 75.9 0.0
07 11:55 W 19 G 30 14.48 Fair CLR 17 4 42% 75.92 0.0
07 11:35 SW 17 G 30 16.09 Fair CLR 16 4 45% 75.95 0.0
07 11:15 NW 19 G 28 16.09 Fair CLR 16 3 42% 75.97 0.0
07 10:55 W 17 16.09 Fair CLR 15 3 45% 75.97 0.0
07 10:35 W 22 16.09 Fair CLR 15 3 45% 76 0.0
07 10:15 NW 17 G 26 16.09 A Few Clouds FEW110 15 4 48% 76 0.0
07 09:55 W 15 G 30 16.09 Partly Cloudy SCT110 15 3 45% 76 0.0
07 09:35 W 19 G 30 16.09 A Few Clouds FEW110 14 3 48% 75.97 0.0
07 09:15 W 19 16.09 Fair CLR 13 4 55% 76 0.0
07 08:55 SW 20 16.09 Fair CLR 12 3 54% 76 0.0
07 08:35 SW 17 G 28 16.09 Fair CLR 10 3 62% 8 76 0.0
07 08:15 SW 17 G 26 16.09 Fair CLR 9 2 62% 7 76 0.0
07 07:55 SW 15 16.09 Fair CLR 8 1 62% 6 76.02 0.0
07 07:35 SW 19 16.09 Fair CLR 7 1 66% 4 76 0.0
07 07:15 SW 15 16.09 Fair CLR 6 0 66% 3 76 0.0
Date Time (cdt) Wind (kph) Vis. (km) Weather Sky Cond. Air Dwpt Max. Min. Relative Humidity Wind Chill (°C) Heat Index (°C) altimeter (cm) sea level (mb) 1 hr 3 hr 6 hr
6 hour
Temperature (ºC) Pressure Precipitation (cm)